sensor_id;sensor_type;location;lat;lon;timestamp;P1;durP1;ratioP1;P2;durP2;ratioP2
49610;SDS011;35515;48.766;9.176;2024-01-11T00:01:37;44.88;;;26.08;;
49610;SDS011;35515;48.766;9.176;2024-01-11T00:04:04;47.17;;;27.35;;
49610;SDS011;35515;48.766;9.176;2024-01-11T00:06:30;41.65;;;24.70;;
49610;SDS011;35515;48.766;9.176;2024-01-11T00:08:57;47.08;;;26.48;;
49610;SDS011;35515;48.766;9.176;2024-01-11T00:11:23;47.70;;;26.52;;
49610;SDS011;35515;48.766;9.176;2024-01-11T00:13:50;45.03;;;26.65;;
49610;SDS011;35515;48.766;9.176;2024-01-11T00:16:18;50.22;;;28.20;;
49610;SDS011;35515;48.766;9.176;2024-01-11T00:18:44;46.60;;;26.90;;
49610;SDS011;35515;48.766;9.176;2024-01-11T00:21:11;52.00;;;27.13;;
49610;SDS011;35515;48.766;9.176;2024-01-11T00:23:37;50.92;;;26.95;;
49610;SDS011;35515;48.766;9.176;2024-01-11T00:26:04;46.08;;;26.02;;
49610;SDS011;35515;48.766;9.176;2024-01-11T00:28:30;49.05;;;27.75;;
49610;SDS011;35515;48.766;9.176;2024-01-11T00:30:57;50.47;;;26.23;;
49610;SDS011;35515;48.766;9.176;2024-01-11T00:33:25;47.75;;;27.45;;
49610;SDS011;35515;48.766;9.176;2024-01-11T00:35:51;48.92;;;27.20;;
49610;SDS011;35515;48.766;9.176;2024-01-11T00:38:18;52.92;;;26.52;;
49610;SDS011;35515;48.766;9.176;2024-01-11T00:40:44;55.28;;;26.15;;
49610;SDS011;35515;48.766;9.176;2024-01-11T00:43:11;50.00;;;26.73;;
49610;SDS011;35515;48.766;9.176;2024-01-11T00:45:37;49.55;;;27.52;;
49610;SDS011;35515;48.766;9.176;2024-01-11T00:48:04;50.65;;;26.77;;
49610;SDS011;35515;48.766;9.176;2024-01-11T00:50:32;49.78;;;27.40;;
49610;SDS011;35515;48.766;9.176;2024-01-11T00:52:59;49.33;;;26.95;;
49610;SDS011;35515;48.766;9.176;2024-01-11T00:55:26;47.03;;;26.30;;
49610;SDS011;35515;48.766;9.176;2024-01-11T00:57:52;54.47;;;28.58;;
49610;SDS011;35515;48.766;9.176;2024-01-11T01:00:19;45.60;;;25.77;;
49610;SDS011;35515;48.766;9.176;2024-01-11T01:02:45;50.35;;;24.92;;
49610;SDS011;35515;48.766;9.176;2024-01-11T01:05:12;43.05;;;25.92;;
49610;SDS011;35515;48.766;9.176;2024-01-11T01:07:40;48.22;;;28.15;;
49610;SDS011;35515;48.766;9.176;2024-01-11T01:10:07;45.97;;;26.40;;
49610;SDS011;35515;48.766;9.176;2024-01-11T01:12:34;50.80;;;25.73;;
49610;SDS011;35515;48.766;9.176;2024-01-11T01:15:00;50.33;;;26.95;;
49610;SDS011;35515;48.766;9.176;2024-01-11T01:17:27;50.28;;;27.95;;
49610;SDS011;35515;48.766;9.176;2024-01-11T01:19:54;47.33;;;25.85;;
49610;SDS011;35515;48.766;9.176;2024-01-11T01:22:20;46.50;;;24.83;;
49610;SDS011;35515;48.766;9.176;2024-01-11T01:24:48;48.25;;;26.48;;
49610;SDS011;35515;48.766;9.176;2024-01-11T01:27:15;51.60;;;27.95;;
49610;SDS011;35515;48.766;9.176;2024-01-11T01:29:42;48.70;;;25.40;;
49610;SDS011;35515;48.766;9.176;2024-01-11T01:32:09;55.08;;;25.83;;
49610;SDS011;35515;48.766;9.176;2024-01-11T01:34:35;46.63;;;25.15;;
49610;SDS011;35515;48.766;9.176;2024-01-11T01:37:02;49.65;;;28.08;;
49610;SDS011;35515;48.766;9.176;2024-01-11T01:39:28;51.15;;;28.58;;
49610;SDS011;35515;48.766;9.176;2024-01-11T01:41:56;42.60;;;24.75;;
49610;SDS011;35515;48.766;9.176;2024-01-11T01:44:23;49.90;;;26.40;;
49610;SDS011;35515;48.766;9.176;2024-01-11T01:46:51;48.45;;;26.88;;
49610;SDS011;35515;48.766;9.176;2024-01-11T01:49:18;51.75;;;27.80;;
49610;SDS011;35515;48.766;9.176;2024-01-11T01:51:47;50.85;;;25.02;;
49610;SDS011;35515;48.766;9.176;2024-01-11T01:54:14;48.42;;;25.92;;
49610;SDS011;35515;48.766;9.176;2024-01-11T01:56:42;48.92;;;26.17;;
49610;SDS011;35515;48.766;9.176;2024-01-11T01:59:10;45.25;;;25.70;;
49610;SDS011;35515;48.766;9.176;2024-01-11T02:01:37;52.97;;;26.98;;
49610;SDS011;35515;48.766;9.176;2024-01-11T02:04:05;48.70;;;26.77;;
49610;SDS011;35515;48.766;9.176;2024-01-11T02:06:32;51.42;;;27.55;;
49610;SDS011;35515;48.766;9.176;2024-01-11T02:09:00;47.03;;;26.80;;
49610;SDS011;35515;48.766;9.176;2024-01-11T02:11:28;49.42;;;27.40;;
49610;SDS011;35515;48.766;9.176;2024-01-11T02:13:55;46.00;;;25.98;;
49610;SDS011;35515;48.766;9.176;2024-01-11T02:16:23;50.53;;;26.75;;
49610;SDS011;35515;48.766;9.176;2024-01-11T02:18:50;42.08;;;24.90;;
49610;SDS011;35515;48.766;9.176;2024-01-11T02:21:16;46.50;;;25.75;;
49610;SDS011;35515;48.766;9.176;2024-01-11T02:23:44;51.88;;;28.00;;
49610;SDS011;35515;48.766;9.176;2024-01-11T02:26:20;53.20;;;28.42;;
49610;SDS011;35515;48.766;9.176;2024-01-11T02:28:47;51.40;;;28.30;;
49610;SDS011;35515;48.766;9.176;2024-01-11T02:31:14;43.50;;;26.75;;
49610;SDS011;35515;48.766;9.176;2024-01-11T02:33:41;49.33;;;25.38;;
49610;SDS011;35515;48.766;9.176;2024-01-11T02:36:08;42.63;;;26.50;;
49610;SDS011;35515;48.766;9.176;2024-01-11T02:38:35;47.72;;;26.80;;
49610;SDS011;35515;48.766;9.176;2024-01-11T02:41:04;43.20;;;26.60;;
49610;SDS011;35515;48.766;9.176;2024-01-11T02:43:31;50.83;;;26.42;;
49610;SDS011;35515;48.766;9.176;2024-01-11T02:45:57;48.03;;;26.23;;
49610;SDS011;35515;48.766;9.176;2024-01-11T02:48:27;46.40;;;25.52;;
49610;SDS011;35515;48.766;9.176;2024-01-11T02:50:53;48.10;;;26.65;;
49610;SDS011;35515;48.766;9.176;2024-01-11T02:53:20;45.15;;;26.33;;
49610;SDS011;35515;48.766;9.176;2024-01-11T02:55:46;49.15;;;25.73;;
49610;SDS011;35515;48.766;9.176;2024-01-11T02:58:14;50.72;;;27.67;;
49610;SDS011;35515;48.766;9.176;2024-01-11T03:00:41;50.25;;;27.92;;
49610;SDS011;35515;48.766;9.176;2024-01-11T03:03:08;49.55;;;27.33;;
49610;SDS011;35515;48.766;9.176;2024-01-11T03:05:34;44.35;;;25.65;;
49610;SDS011;35515;48.766;9.176;2024-01-11T03:08:01;43.65;;;24.73;;
49610;SDS011;35515;48.766;9.176;2024-01-11T03:10:27;51.40;;;27.45;;
49610;SDS011;35515;48.766;9.176;2024-01-11T03:12:54;50.20;;;27.60;;
49610;SDS011;35515;48.766;9.176;2024-01-11T03:15:21;51.38;;;26.42;;
49610;SDS011;35515;48.766;9.176;2024-01-11T03:17:48;51.65;;;27.85;;
49610;SDS011;35515;48.766;9.176;2024-01-11T03:20:15;46.90;;;25.80;;
49610;SDS011;35515;48.766;9.176;2024-01-11T03:22:45;51.58;;;27.70;;
49610;SDS011;35515;48.766;9.176;2024-01-11T03:25:12;48.90;;;25.77;;
49610;SDS011;35515;48.766;9.176;2024-01-11T03:27:38;50.72;;;26.15;;
49610;SDS011;35515;48.766;9.176;2024-01-11T03:30:05;52.45;;;28.45;;
49610;SDS011;35515;48.766;9.176;2024-01-11T03:32:34;53.75;;;27.65;;
49610;SDS011;35515;48.766;9.176;2024-01-11T03:35:01;45.75;;;25.45;;
49610;SDS011;35515;48.766;9.176;2024-01-11T03:37:27;53.78;;;28.27;;
49610;SDS011;35515;48.766;9.176;2024-01-11T03:39:54;51.22;;;27.42;;
49610;SDS011;35515;48.766;9.176;2024-01-11T03:42:20;48.67;;;27.88;;
49610;SDS011;35515;48.766;9.176;2024-01-11T03:44:47;48.88;;;27.20;;
49610;SDS011;35515;48.766;9.176;2024-01-11T03:47:13;53.45;;;28.20;;
49610;SDS011;35515;48.766;9.176;2024-01-11T03:49:41;55.85;;;28.58;;
49610;SDS011;35515;48.766;9.176;2024-01-11T03:52:08;47.95;;;25.13;;
49610;SDS011;35515;48.766;9.176;2024-01-11T03:54:34;48.92;;;26.05;;
49610;SDS011;35515;48.766;9.176;2024-01-11T03:57:01;53.35;;;29.58;;
49610;SDS011;35515;48.766;9.176;2024-01-11T03:59:28;52.78;;;28.05;;
49610;SDS011;35515;48.766;9.176;2024-01-11T04:01:54;52.65;;;27.15;;
49610;SDS011;35515;48.766;9.176;2024-01-11T04:04:21;46.03;;;26.50;;
49610;SDS011;35515;48.766;9.176;2024-01-11T04:06:49;52.85;;;28.00;;
49610;SDS011;35515;48.766;9.176;2024-01-11T04:09:17;52.20;;;29.15;;
49610;SDS011;35515;48.766;9.176;2024-01-11T04:11:45;51.78;;;27.58;;
49610;SDS011;35515;48.766;9.176;2024-01-11T04:14:12;55.28;;;26.95;;
49610;SDS011;35515;48.766;9.176;2024-01-11T04:16:39;50.72;;;27.10;;
49610;SDS011;35515;48.766;9.176;2024-01-11T04:19:06;49.08;;;26.15;;
49610;SDS011;35515;48.766;9.176;2024-01-11T04:21:33;51.05;;;27.30;;
49610;SDS011;35515;48.766;9.176;2024-01-11T04:24:00;51.72;;;27.77;;
49610;SDS011;35515;48.766;9.176;2024-01-11T04:26:27;56.00;;;27.77;;
49610;SDS011;35515;48.766;9.176;2024-01-11T04:28:53;51.08;;;27.58;;
49610;SDS011;35515;48.766;9.176;2024-01-11T04:31:22;48.67;;;26.52;;
49610;SDS011;35515;48.766;9.176;2024-01-11T04:33:49;48.17;;;27.35;;
49610;SDS011;35515;48.766;9.176;2024-01-11T04:36:15;45.05;;;24.38;;
49610;SDS011;35515;48.766;9.176;2024-01-11T04:38:42;48.10;;;24.38;;
49610;SDS011;35515;48.766;9.176;2024-01-11T04:41:10;54.58;;;26.73;;
49610;SDS011;35515;48.766;9.176;2024-01-11T04:43:37;52.55;;;28.55;;
49610;SDS011;35515;48.766;9.176;2024-01-11T04:46:12;50.38;;;27.45;;
49610;SDS011;35515;48.766;9.176;2024-01-11T04:48:39;56.13;;;28.52;;
49610;SDS011;35515;48.766;9.176;2024-01-11T04:51:05;52.10;;;27.42;;
49610;SDS011;35515;48.766;9.176;2024-01-11T04:53:32;48.00;;;26.48;;
49610;SDS011;35515;48.766;9.176;2024-01-11T04:55:58;42.22;;;26.00;;
49610;SDS011;35515;48.766;9.176;2024-01-11T04:58:26;56.90;;;27.55;;
49610;SDS011;35515;48.766;9.176;2024-01-11T05:00:53;58.28;;;29.05;;
49610;SDS011;35515;48.766;9.176;2024-01-11T05:03:19;55.15;;;27.33;;
49610;SDS011;35515;48.766;9.176;2024-01-11T05:05:46;49.65;;;27.50;;
49610;SDS011;35515;48.766;9.176;2024-01-11T05:08:12;53.00;;;29.17;;
49610;SDS011;35515;48.766;9.176;2024-01-11T05:10:39;51.83;;;29.90;;
49610;SDS011;35515;48.766;9.176;2024-01-11T05:13:06;60.55;;;30.10;;
49610;SDS011;35515;48.766;9.176;2024-01-11T05:15:33;52.90;;;27.95;;
49610;SDS011;35515;48.766;9.176;2024-01-11T05:18:00;54.67;;;28.70;;
49610;SDS011;35515;48.766;9.176;2024-01-11T05:20:26;58.33;;;27.25;;
49610;SDS011;35515;48.766;9.176;2024-01-11T05:22:53;49.50;;;26.85;;
49610;SDS011;35515;48.766;9.176;2024-01-11T05:25:20;48.70;;;27.45;;
49610;SDS011;35515;48.766;9.176;2024-01-11T05:27:47;50.83;;;28.33;;
49610;SDS011;35515;48.766;9.176;2024-01-11T05:30:13;54.80;;;28.90;;
49610;SDS011;35515;48.766;9.176;2024-01-11T05:32:42;54.45;;;28.67;;
49610;SDS011;35515;48.766;9.176;2024-01-11T05:35:08;53.08;;;28.83;;
49610;SDS011;35515;48.766;9.176;2024-01-11T05:37:35;56.92;;;29.42;;
49610;SDS011;35515;48.766;9.176;2024-01-11T05:40:01;57.33;;;28.48;;
49610;SDS011;35515;48.766;9.176;2024-01-11T05:42:29;48.05;;;27.42;;
49610;SDS011;35515;48.766;9.176;2024-01-11T05:44:55;53.88;;;29.73;;
49610;SDS011;35515;48.766;9.176;2024-01-11T05:47:22;52.95;;;27.27;;
49610;SDS011;35515;48.766;9.176;2024-01-11T05:49:50;53.35;;;28.85;;
49610;SDS011;35515;48.766;9.176;2024-01-11T05:52:16;48.95;;;27.42;;
49610;SDS011;35515;48.766;9.176;2024-01-11T05:54:43;52.35;;;27.13;;
49610;SDS011;35515;48.766;9.176;2024-01-11T05:57:09;48.53;;;26.83;;
49610;SDS011;35515;48.766;9.176;2024-01-11T05:59:36;50.20;;;28.42;;
49610;SDS011;35515;48.766;9.176;2024-01-11T06:02:03;55.08;;;27.83;;
49610;SDS011;35515;48.766;9.176;2024-01-11T06:04:31;57.88;;;29.60;;
49610;SDS011;35515;48.766;9.176;2024-01-11T06:06:59;52.50;;;27.13;;
49610;SDS011;35515;48.766;9.176;2024-01-11T06:09:26;54.58;;;29.55;;
49610;SDS011;35515;48.766;9.176;2024-01-11T06:11:52;53.05;;;29.08;;
49610;SDS011;35515;48.766;9.176;2024-01-11T06:14:19;56.17;;;30.60;;
49610;SDS011;35515;48.766;9.176;2024-01-11T06:16:46;54.63;;;29.75;;
49610;SDS011;35515;48.766;9.176;2024-01-11T06:19:12;48.00;;;27.98;;
49610;SDS011;35515;48.766;9.176;2024-01-11T06:21:44;53.65;;;27.95;;
49610;SDS011;35515;48.766;9.176;2024-01-11T06:24:29;51.80;;;29.15;;
49610;SDS011;35515;48.766;9.176;2024-01-11T06:26:56;54.92;;;30.67;;
49610;SDS011;35515;48.766;9.176;2024-01-11T06:29:22;52.25;;;28.50;;
49610;SDS011;35515;48.766;9.176;2024-01-11T06:31:49;51.95;;;28.17;;
49610;SDS011;35515;48.766;9.176;2024-01-11T06:34:15;48.80;;;28.65;;
49610;SDS011;35515;48.766;9.176;2024-01-11T06:36:42;53.53;;;29.42;;
49610;SDS011;35515;48.766;9.176;2024-01-11T06:39:09;53.97;;;28.70;;
49610;SDS011;35515;48.766;9.176;2024-01-11T06:41:39;49.30;;;27.17;;
49610;SDS011;35515;48.766;9.176;2024-01-11T06:44:05;58.00;;;30.40;;
49610;SDS011;35515;48.766;9.176;2024-01-11T06:46:32;53.60;;;28.48;;
49610;SDS011;35515;48.766;9.176;2024-01-11T06:48:58;55.08;;;28.80;;
49610;SDS011;35515;48.766;9.176;2024-01-11T06:51:25;59.70;;;29.90;;
49610;SDS011;35515;48.766;9.176;2024-01-11T06:53:52;51.25;;;28.20;;
49610;SDS011;35515;48.766;9.176;2024-01-11T06:56:19;53.03;;;27.48;;
49610;SDS011;35515;48.766;9.176;2024-01-11T06:58:48;53.88;;;29.17;;
49610;SDS011;35515;48.766;9.176;2024-01-11T07:01:15;54.47;;;31.27;;
49610;SDS011;35515;48.766;9.176;2024-01-11T07:03:41;46.30;;;25.58;;
49610;SDS011;35515;48.766;9.176;2024-01-11T07:06:08;50.22;;;28.13;;
49610;SDS011;35515;48.766;9.176;2024-01-11T07:08:34;51.92;;;29.65;;
49610;SDS011;35515;48.766;9.176;2024-01-11T07:11:01;57.97;;;29.67;;
49610;SDS011;35515;48.766;9.176;2024-01-11T07:13:28;55.90;;;30.15;;
49610;SDS011;35515;48.766;9.176;2024-01-11T07:15:56;59.22;;;30.80;;
49610;SDS011;35515;48.766;9.176;2024-01-11T07:18:23;57.92;;;29.65;;
49610;SDS011;35515;48.766;9.176;2024-01-11T07:20:50;56.53;;;30.15;;
49610;SDS011;35515;48.766;9.176;2024-01-11T07:23:17;57.08;;;30.08;;
49610;SDS011;35515;48.766;9.176;2024-01-11T07:25:43;58.08;;;29.00;;
49610;SDS011;35515;48.766;9.176;2024-01-11T07:28:10;53.58;;;29.67;;
49610;SDS011;35515;48.766;9.176;2024-01-11T07:30:36;57.65;;;29.13;;
49610;SDS011;35515;48.766;9.176;2024-01-11T07:33:04;56.42;;;30.73;;
49610;SDS011;35515;48.766;9.176;2024-01-11T07:35:31;53.17;;;28.45;;
49610;SDS011;35515;48.766;9.176;2024-01-11T07:37:57;55.55;;;28.25;;
49610;SDS011;35515;48.766;9.176;2024-01-11T07:40:24;50.08;;;30.48;;
49610;SDS011;35515;48.766;9.176;2024-01-11T07:42:50;60.13;;;30.42;;
49610;SDS011;35515;48.766;9.176;2024-01-11T07:45:17;48.65;;;28.05;;
49610;SDS011;35515;48.766;9.176;2024-01-11T07:47:44;57.80;;;30.63;;
49610;SDS011;35515;48.766;9.176;2024-01-11T07:50:12;55.35;;;31.05;;
49610;SDS011;35515;48.766;9.176;2024-01-11T07:52:39;57.92;;;28.88;;
49610;SDS011;35515;48.766;9.176;2024-01-11T07:55:06;62.38;;;31.83;;
49610;SDS011;35515;48.766;9.176;2024-01-11T07:57:34;62.55;;;31.35;;
49610;SDS011;35515;48.766;9.176;2024-01-11T08:00:01;57.60;;;29.40;;
49610;SDS011;35515;48.766;9.176;2024-01-11T08:02:29;59.45;;;31.35;;
49610;SDS011;35515;48.766;9.176;2024-01-11T08:04:55;61.65;;;32.03;;
49610;SDS011;35515;48.766;9.176;2024-01-11T08:07:23;60.65;;;30.52;;
49610;SDS011;35515;48.766;9.176;2024-01-11T08:09:50;57.60;;;30.67;;
49610;SDS011;35515;48.766;9.176;2024-01-11T08:12:16;60.10;;;30.95;;
49610;SDS011;35515;48.766;9.176;2024-01-11T08:14:43;54.70;;;31.90;;
49610;SDS011;35515;48.766;9.176;2024-01-11T08:17:11;60.65;;;30.33;;
49610;SDS011;35515;48.766;9.176;2024-01-11T08:19:38;62.17;;;31.50;;
49610;SDS011;35515;48.766;9.176;2024-01-11T08:22:05;61.58;;;31.42;;
49610;SDS011;35515;48.766;9.176;2024-01-11T08:24:33;58.20;;;33.13;;
49610;SDS011;35515;48.766;9.176;2024-01-11T08:27:01;57.58;;;31.92;;
49610;SDS011;35515;48.766;9.176;2024-01-11T08:29:28;64.40;;;32.38;;
49610;SDS011;35515;48.766;9.176;2024-01-11T08:31:54;56.00;;;30.90;;
49610;SDS011;35515;48.766;9.176;2024-01-11T08:34:21;63.25;;;34.28;;
49610;SDS011;35515;48.766;9.176;2024-01-11T08:36:48;53.75;;;30.48;;
49610;SDS011;35515;48.766;9.176;2024-01-11T08:39:14;60.55;;;33.72;;
49610;SDS011;35515;48.766;9.176;2024-01-11T08:41:42;62.63;;;33.67;;
49610;SDS011;35515;48.766;9.176;2024-01-11T08:44:09;66.53;;;33.88;;
49610;SDS011;35515;48.766;9.176;2024-01-11T08:46:36;64.90;;;33.72;;
49610;SDS011;35515;48.766;9.176;2024-01-11T08:49:03;61.35;;;32.33;;
49610;SDS011;35515;48.766;9.176;2024-01-11T08:51:29;62.67;;;34.67;;
49610;SDS011;35515;48.766;9.176;2024-01-11T08:53:57;63.63;;;34.67;;
49610;SDS011;35515;48.766;9.176;2024-01-11T08:56:23;66.22;;;35.22;;
49610;SDS011;35515;48.766;9.176;2024-01-11T08:58:51;60.30;;;35.03;;
49610;SDS011;35515;48.766;9.176;2024-01-11T09:01:18;63.65;;;34.35;;
49610;SDS011;35515;48.766;9.176;2024-01-11T09:03:45;62.38;;;34.58;;
49610;SDS011;35515;48.766;9.176;2024-01-11T09:06:13;62.17;;;32.40;;
49610;SDS011;35515;48.766;9.176;2024-01-11T09:08:39;66.65;;;34.22;;
49610;SDS011;35515;48.766;9.176;2024-01-11T09:11:07;66.72;;;35.35;;
49610;SDS011;35515;48.766;9.176;2024-01-11T09:13:35;59.72;;;34.40;;
49610;SDS011;35515;48.766;9.176;2024-01-11T09:16:04;66.78;;;33.83;;
49610;SDS011;35515;48.766;9.176;2024-01-11T09:18:32;64.47;;;35.85;;
49610;SDS011;35515;48.766;9.176;2024-01-11T09:20:58;65.03;;;34.25;;
49610;SDS011;35515;48.766;9.176;2024-01-11T09:23:25;63.70;;;35.20;;
49610;SDS011;35515;48.766;9.176;2024-01-11T09:25:51;67.18;;;36.00;;
49610;SDS011;35515;48.766;9.176;2024-01-11T09:28:18;60.50;;;33.67;;
49610;SDS011;35515;48.766;9.176;2024-01-11T09:30:44;58.63;;;34.65;;
49610;SDS011;35515;48.766;9.176;2024-01-11T09:33:12;68.22;;;35.65;;
49610;SDS011;35515;48.766;9.176;2024-01-11T09:35:41;64.10;;;34.38;;
49610;SDS011;35515;48.766;9.176;2024-01-11T09:38:08;63.42;;;34.40;;
49610;SDS011;35515;48.766;9.176;2024-01-11T09:40:35;60.05;;;32.45;;
49610;SDS011;35515;48.766;9.176;2024-01-11T09:43:03;65.97;;;34.83;;
49610;SDS011;35515;48.766;9.176;2024-01-11T09:45:30;62.55;;;33.75;;
49610;SDS011;35515;48.766;9.176;2024-01-11T09:47:57;64.57;;;33.78;;
49610;SDS011;35515;48.766;9.176;2024-01-11T09:50:25;64.18;;;34.72;;
49610;SDS011;35515;48.766;9.176;2024-01-11T09:52:52;72.47;;;35.05;;
49610;SDS011;35515;48.766;9.176;2024-01-11T09:55:19;67.20;;;35.00;;
49610;SDS011;35515;48.766;9.176;2024-01-11T09:57:46;58.60;;;33.38;;
49610;SDS011;35515;48.766;9.176;2024-01-11T10:00:16;61.92;;;32.20;;
49610;SDS011;35515;48.766;9.176;2024-01-11T10:02:44;63.70;;;31.75;;
49610;SDS011;35515;48.766;9.176;2024-01-11T10:05:11;69.97;;;36.08;;
49610;SDS011;35515;48.766;9.176;2024-01-11T10:07:40;71.47;;;37.22;;
49610;SDS011;35515;48.766;9.176;2024-01-11T10:10:07;59.22;;;32.83;;
49610;SDS011;35515;48.766;9.176;2024-01-11T10:12:34;66.63;;;34.50;;
49610;SDS011;35515;48.766;9.176;2024-01-11T10:15:04;62.85;;;35.88;;
49610;SDS011;35515;48.766;9.176;2024-01-11T10:17:35;63.17;;;35.67;;
49610;SDS011;35515;48.766;9.176;2024-01-11T10:20:03;62.33;;;34.95;;
49610;SDS011;35515;48.766;9.176;2024-01-11T10:22:30;61.55;;;33.97;;
49610;SDS011;35515;48.766;9.176;2024-01-11T10:25:11;66.85;;;37.05;;
49610;SDS011;35515;48.766;9.176;2024-01-11T10:27:39;65.03;;;34.88;;
49610;SDS011;35515;48.766;9.176;2024-01-11T10:30:08;62.80;;;35.25;;
49610;SDS011;35515;48.766;9.176;2024-01-11T10:32:35;61.30;;;35.20;;
49610;SDS011;35515;48.766;9.176;2024-01-11T10:35:02;68.60;;;36.88;;
49610;SDS011;35515;48.766;9.176;2024-01-11T10:37:30;59.72;;;34.25;;
49610;SDS011;35515;48.766;9.176;2024-01-11T10:39:57;64.03;;;36.25;;
49610;SDS011;35515;48.766;9.176;2024-01-11T10:42:28;70.28;;;36.13;;
49610;SDS011;35515;48.766;9.176;2024-01-11T10:44:58;63.25;;;35.88;;
49610;SDS011;35515;48.766;9.176;2024-01-11T10:47:25;71.20;;;38.03;;
49610;SDS011;35515;48.766;9.176;2024-01-11T10:49:56;64.50;;;38.40;;
49610;SDS011;35515;48.766;9.176;2024-01-11T10:52:31;69.40;;;38.50;;
49610;SDS011;35515;48.766;9.176;2024-01-11T10:55:02;66.45;;;35.47;;
49610;SDS011;35515;48.766;9.176;2024-01-11T10:57:31;69.35;;;36.88;;
49610;SDS011;35515;48.766;9.176;2024-01-11T10:59:59;70.82;;;38.63;;
49610;SDS011;35515;48.766;9.176;2024-01-11T11:02:28;68.03;;;37.50;;
49610;SDS011;35515;48.766;9.176;2024-01-11T11:04:55;65.60;;;37.20;;
49610;SDS011;35515;48.766;9.176;2024-01-11T11:07:23;57.17;;;30.50;;
49610;SDS011;35515;48.766;9.176;2024-01-11T11:09:52;68.03;;;34.95;;
49610;SDS011;35515;48.766;9.176;2024-01-11T11:12:19;62.80;;;36.25;;
49610;SDS011;35515;48.766;9.176;2024-01-11T11:14:49;63.95;;;36.42;;
49610;SDS011;35515;48.766;9.176;2024-01-11T11:17:17;68.88;;;35.88;;
49610;SDS011;35515;48.766;9.176;2024-01-11T11:19:44;64.38;;;35.15;;
49610;SDS011;35515;48.766;9.176;2024-01-11T11:22:12;65.28;;;35.20;;
49610;SDS011;35515;48.766;9.176;2024-01-11T11:24:40;59.42;;;35.30;;
49610;SDS011;35515;48.766;9.176;2024-01-11T11:27:07;66.47;;;36.25;;
49610;SDS011;35515;48.766;9.176;2024-01-11T11:29:33;67.85;;;35.50;;
49610;SDS011;35515;48.766;9.176;2024-01-11T11:32:01;62.03;;;33.70;;
49610;SDS011;35515;48.766;9.176;2024-01-11T11:34:41;61.10;;;34.30;;
49610;SDS011;35515;48.766;9.176;2024-01-11T11:37:09;62.35;;;34.90;;
49610;SDS011;35515;48.766;9.176;2024-01-11T11:39:36;63.00;;;36.08;;
49610;SDS011;35515;48.766;9.176;2024-01-11T11:42:03;65.22;;;36.42;;
49610;SDS011;35515;48.766;9.176;2024-01-11T11:44:30;65.78;;;36.13;;
49610;SDS011;35515;48.766;9.176;2024-01-11T11:47:11;62.92;;;35.55;;
49610;SDS011;35515;48.766;9.176;2024-01-11T11:49:57;59.75;;;35.20;;
49610;SDS011;35515;48.766;9.176;2024-01-11T11:52:25;63.73;;;35.37;;
49610;SDS011;35515;48.766;9.176;2024-01-11T11:54:52;68.55;;;38.25;;
49610;SDS011;35515;48.766;9.176;2024-01-11T11:57:20;62.55;;;35.70;;
49610;SDS011;35515;48.766;9.176;2024-01-11T11:59:48;65.00;;;35.55;;
49610;SDS011;35515;48.766;9.176;2024-01-11T12:02:16;65.55;;;36.63;;
49610;SDS011;35515;48.766;9.176;2024-01-11T12:04:46;61.78;;;34.10;;
49610;SDS011;35515;48.766;9.176;2024-01-11T12:07:13;69.93;;;38.72;;
49610;SDS011;35515;48.766;9.176;2024-01-11T12:09:40;69.03;;;36.42;;
49610;SDS011;35515;48.766;9.176;2024-01-11T12:12:06;69.53;;;37.30;;
49610;SDS011;35515;48.766;9.176;2024-01-11T12:14:33;66.90;;;37.67;;
49610;SDS011;35515;48.766;9.176;2024-01-11T12:17:00;61.30;;;35.75;;
49610;SDS011;35515;48.766;9.176;2024-01-11T12:19:28;58.13;;;34.88;;
49610;SDS011;35515;48.766;9.176;2024-01-11T12:21:55;63.08;;;37.08;;
49610;SDS011;35515;48.766;9.176;2024-01-11T12:24:22;64.78;;;36.25;;
49610;SDS011;35515;48.766;9.176;2024-01-11T12:26:49;57.53;;;34.08;;
49610;SDS011;35515;48.766;9.176;2024-01-11T12:29:17;61.63;;;35.60;;
49610;SDS011;35515;48.766;9.176;2024-01-11T12:31:43;65.50;;;36.35;;
49610;SDS011;35515;48.766;9.176;2024-01-11T12:34:11;58.85;;;34.13;;
49610;SDS011;35515;48.766;9.176;2024-01-11T12:36:39;53.92;;;32.72;;
49610;SDS011;35515;48.766;9.176;2024-01-11T12:39:06;62.53;;;34.65;;
49610;SDS011;35515;48.766;9.176;2024-01-11T12:41:34;59.35;;;35.50;;
49610;SDS011;35515;48.766;9.176;2024-01-11T12:44:01;60.60;;;34.80;;
49610;SDS011;35515;48.766;9.176;2024-01-11T12:46:28;59.45;;;34.60;;
49610;SDS011;35515;48.766;9.176;2024-01-11T12:48:55;59.90;;;35.13;;
49610;SDS011;35515;48.766;9.176;2024-01-11T12:51:21;57.00;;;35.58;;
49610;SDS011;35515;48.766;9.176;2024-01-11T12:53:51;60.20;;;33.22;;
49610;SDS011;35515;48.766;9.176;2024-01-11T12:56:19;65.13;;;35.75;;
49610;SDS011;35515;48.766;9.176;2024-01-11T12:58:46;62.00;;;36.67;;
49610;SDS011;35515;48.766;9.176;2024-01-11T13:01:13;58.13;;;33.20;;
49610;SDS011;35515;48.766;9.176;2024-01-11T13:03:43;54.90;;;33.35;;
49610;SDS011;35515;48.766;9.176;2024-01-11T13:06:10;62.45;;;35.15;;
49610;SDS011;35515;48.766;9.176;2024-01-11T13:08:38;57.10;;;32.78;;
49610;SDS011;35515;48.766;9.176;2024-01-11T13:11:08;56.35;;;33.45;;
49610;SDS011;35515;48.766;9.176;2024-01-11T13:13:36;62.05;;;33.90;;
49610;SDS011;35515;48.766;9.176;2024-01-11T13:16:03;59.15;;;34.58;;
49610;SDS011;35515;48.766;9.176;2024-01-11T13:18:31;60.50;;;34.45;;
49610;SDS011;35515;48.766;9.176;2024-01-11T13:20:57;59.45;;;34.65;;
49610;SDS011;35515;48.766;9.176;2024-01-11T13:23:24;60.65;;;34.97;;
49610;SDS011;35515;48.766;9.176;2024-01-11T13:25:51;58.80;;;34.10;;
49610;SDS011;35515;48.766;9.176;2024-01-11T13:28:19;56.10;;;32.90;;
49610;SDS011;35515;48.766;9.176;2024-01-11T13:30:46;56.78;;;32.85;;
49610;SDS011;35515;48.766;9.176;2024-01-11T13:33:14;64.15;;;34.53;;
49610;SDS011;35515;48.766;9.176;2024-01-11T13:35:42;60.13;;;33.97;;
49610;SDS011;35515;48.766;9.176;2024-01-11T13:38:09;63.92;;;36.72;;
49610;SDS011;35515;48.766;9.176;2024-01-11T13:40:36;56.53;;;35.50;;
49610;SDS011;35515;48.766;9.176;2024-01-11T13:43:05;62.05;;;33.72;;
49610;SDS011;35515;48.766;9.176;2024-01-11T13:45:33;61.80;;;36.50;;
49610;SDS011;35515;48.766;9.176;2024-01-11T13:48:01;62.90;;;34.15;;
49610;SDS011;35515;48.766;9.176;2024-01-11T13:50:28;62.35;;;36.50;;
49610;SDS011;35515;48.766;9.176;2024-01-11T13:52:55;51.67;;;32.35;;
49610;SDS011;35515;48.766;9.176;2024-01-11T13:55:21;61.83;;;34.67;;
49610;SDS011;35515;48.766;9.176;2024-01-11T13:57:48;56.55;;;33.08;;
49610;SDS011;35515;48.766;9.176;2024-01-11T14:00:16;63.47;;;34.05;;
49610;SDS011;35515;48.766;9.176;2024-01-11T14:02:45;56.45;;;33.47;;
49610;SDS011;35515;48.766;9.176;2024-01-11T14:05:12;58.80;;;35.03;;
49610;SDS011;35515;48.766;9.176;2024-01-11T14:07:41;61.80;;;35.28;;
49610;SDS011;35515;48.766;9.176;2024-01-11T14:10:08;53.88;;;34.05;;
49610;SDS011;35515;48.766;9.176;2024-01-11T14:12:36;61.00;;;32.78;;
49610;SDS011;35515;48.766;9.176;2024-01-11T14:15:04;61.10;;;35.40;;
49610;SDS011;35515;48.766;9.176;2024-01-11T14:17:31;54.17;;;32.35;;
49610;SDS011;35515;48.766;9.176;2024-01-11T14:19:59;59.00;;;32.50;;
49610;SDS011;35515;48.766;9.176;2024-01-11T14:22:26;57.63;;;33.50;;